Main page
METAR-TAF:

METAR-TAF

Airports :

Devils Lake Regional Airport

Devils Lake, North Dakota, United States

latitude: 48-07N, longitude: 098-55W, elevation: 443 m

Current weather observation

The report was made 40 minutes ago, at 16:56 UTC
Wind 15 kt from the South with gusts up to 18 kt
Temperature 24°C
Humidity 65%
Pressure 1005 hPa
Visibility: 16.1 km
Clear sky

METAR: KDVL 151656Z AUTO 18015G18KT 10SM CLR 24/17 A2969 RMK AO2 PRESFR SLP055 T02390167 PNO $

Time: 12:36 (17:36 UTC)

Forecast

The report was made 1 hour and 48 minutes ago, at 15:48 UTC
Forecast valid from 15 at 16 UTC to 16 at 12 UTC
Wind 16 kt from the South with gusts up to 25 kt
Visibility: 10 km
Clear sky
From 15 at 2300 UTC
Wind 16 kt from the South
Visibility: 10 km
Broken clouds at a height of 3000 ft
From 16 at 0500 UTC
Wind 14 kt from the South/Southeast
Visibility: 10 km
Broken clouds at a height of 3500 ft
showers in vicinity,

TAF: KDVL 151548Z 1516/1612 18016G25KT P6SM SKC FM152300 17016KT P6SM BKN030 FM160500 15014KT P6SM VCSH BKN035

Weather observations and forecasts of more than 4000 airports (METAR and TAF reports).

The available stations are represented by yellow and red dots on the map.

Hover mouse over dot to see the name of the station.

Then click to see weather observations and forecasts.

To change the map : click on the green buttons with a black cross to zoom in, on the green button with a dash to zoom out, or on the green arrows for adjacent maps.


METAR-TAF: